sensor_id;sensor_type;location;lat;lon;timestamp;P1;durP1;ratioP1;P2;durP2;ratioP2
44143;SDS011;68165;51.920;4.492;2023-07-13T00:01:43;10.10;;;1.80;;
44143;SDS011;68165;51.920;4.492;2023-07-13T00:04:08;14.18;;;2.00;;
44143;SDS011;68165;51.920;4.492;2023-07-13T00:06:34;12.85;;;2.20;;
44143;SDS011;68165;51.920;4.492;2023-07-13T00:09:00;12.88;;;2.92;;
44143;SDS011;68165;51.920;4.492;2023-07-13T00:11:26;14.48;;;2.78;;
44143;SDS011;68165;51.920;4.492;2023-07-13T00:13:52;13.77;;;2.85;;
44143;SDS011;68165;51.920;4.492;2023-07-13T00:16:18;12.07;;;3.25;;
44143;SDS011;68165;51.920;4.492;2023-07-13T00:18:44;11.80;;;2.30;;
44143;SDS011;68165;51.920;4.492;2023-07-13T00:21:10;11.38;;;1.65;;
44143;SDS011;68165;51.920;4.492;2023-07-13T00:23:37;9.80;;;2.13;;
44143;SDS011;68165;51.920;4.492;2023-07-13T00:26:05;13.05;;;2.30;;
44143;SDS011;68165;51.920;4.492;2023-07-13T00:28:34;10.02;;;2.00;;
44143;SDS011;68165;51.920;4.492;2023-07-13T00:31:00;11.50;;;2.15;;
44143;SDS011;68165;51.920;4.492;2023-07-13T00:33:29;10.35;;;2.38;;
44143;SDS011;68165;51.920;4.492;2023-07-13T00:35:55;15.68;;;2.65;;
44143;SDS011;68165;51.920;4.492;2023-07-13T00:38:21;11.82;;;2.15;;
44143;SDS011;68165;51.920;4.492;2023-07-13T00:40:46;9.15;;;2.10;;
44143;SDS011;68165;51.920;4.492;2023-07-13T00:43:19;15.05;;;2.75;;
44143;SDS011;68165;51.920;4.492;2023-07-13T00:48:14;11.23;;;2.22;;
44143;SDS011;68165;51.920;4.492;2023-07-13T00:50:43;11.27;;;2.70;;
44143;SDS011;68165;51.920;4.492;2023-07-13T00:53:10;10.00;;;2.20;;
44143;SDS011;68165;51.920;4.492;2023-07-13T00:55:36;10.68;;;1.90;;
44143;SDS011;68165;51.920;4.492;2023-07-13T00:58:03;8.57;;;1.98;;
44143;SDS011;68165;51.920;4.492;2023-07-13T01:00:30;11.20;;;2.00;;
44143;SDS011;68165;51.920;4.492;2023-07-13T01:02:55;10.90;;;1.70;;
44143;SDS011;68165;51.920;4.492;2023-07-13T01:05:22;11.95;;;2.40;;
44143;SDS011;68165;51.920;4.492;2023-07-13T01:07:49;10.63;;;1.90;;
44143;SDS011;68165;51.920;4.492;2023-07-13T01:10:17;6.65;;;1.73;;
44143;SDS011;68165;51.920;4.492;2023-07-13T01:12:45;14.77;;;2.85;;
44143;SDS011;68165;51.920;4.492;2023-07-13T01:17:58;11.20;;;2.17;;
44143;SDS011;68165;51.920;4.492;2023-07-13T01:20:23;11.13;;;2.35;;
44143;SDS011;68165;51.920;4.492;2023-07-13T01:22:49;8.55;;;2.10;;
44143;SDS011;68165;51.920;4.492;2023-07-13T01:25:15;6.20;;;1.63;;
44143;SDS011;68165;51.920;4.492;2023-07-13T01:27:41;9.73;;;1.60;;
44143;SDS011;68165;51.920;4.492;2023-07-13T01:30:06;8.48;;;1.52;;
44143;SDS011;68165;51.920;4.492;2023-07-13T01:32:32;11.23;;;2.80;;
44143;SDS011;68165;51.920;4.492;2023-07-13T01:34:59;7.30;;;1.92;;
44143;SDS011;68165;51.920;4.492;2023-07-13T01:37:25;8.25;;;1.38;;
44143;SDS011;68165;51.920;4.492;2023-07-13T01:39:51;8.85;;;1.40;;
44143;SDS011;68165;51.920;4.492;2023-07-13T01:42:18;8.18;;;1.65;;
44143;SDS011;68165;51.920;4.492;2023-07-13T01:44:43;9.40;;;1.65;;
44143;SDS011;68165;51.920;4.492;2023-07-13T01:47:09;3.97;;;1.00;;
44143;SDS011;68165;51.920;4.492;2023-07-13T01:49:35;6.13;;;1.20;;
44143;SDS011;68165;51.920;4.492;2023-07-13T01:52:00;7.45;;;1.58;;
44143;SDS011;68165;51.920;4.492;2023-07-13T01:54:25;4.85;;;1.20;;
44143;SDS011;68165;51.920;4.492;2023-07-13T01:56:51;3.92;;;0.65;;
44143;SDS011;68165;51.920;4.492;2023-07-13T01:59:16;2.83;;;1.08;;
44143;SDS011;68165;51.920;4.492;2023-07-13T02:01:41;3.83;;;0.90;;
44143;SDS011;68165;51.920;4.492;2023-07-13T02:04:07;6.30;;;1.20;;
44143;SDS011;68165;51.920;4.492;2023-07-13T02:06:32;6.85;;;1.38;;
44143;SDS011;68165;51.920;4.492;2023-07-13T02:08:58;5.22;;;1.60;;
44143;SDS011;68165;51.920;4.492;2023-07-13T02:11:24;6.20;;;1.17;;
44143;SDS011;68165;51.920;4.492;2023-07-13T02:13:50;6.38;;;1.60;;
44143;SDS011;68165;51.920;4.492;2023-07-13T02:16:15;6.38;;;1.45;;
44143;SDS011;68165;51.920;4.492;2023-07-13T02:18:41;10.40;;;1.95;;
44143;SDS011;68165;51.920;4.492;2023-07-13T02:21:06;6.18;;;1.52;;
44143;SDS011;68165;51.920;4.492;2023-07-13T02:23:31;8.93;;;2.03;;
44143;SDS011;68165;51.920;4.492;2023-07-13T02:25:57;8.52;;;1.85;;
44143;SDS011;68165;51.920;4.492;2023-07-13T02:28:23;9.10;;;1.70;;
44143;SDS011;68165;51.920;4.492;2023-07-13T02:30:51;9.80;;;1.42;;
44143;SDS011;68165;51.920;4.492;2023-07-13T02:33:16;8.63;;;1.83;;
44143;SDS011;68165;51.920;4.492;2023-07-13T02:35:42;11.45;;;1.73;;
44143;SDS011;68165;51.920;4.492;2023-07-13T02:38:07;11.70;;;2.20;;
44143;SDS011;68165;51.920;4.492;2023-07-13T02:40:33;10.88;;;2.35;;
44143;SDS011;68165;51.920;4.492;2023-07-13T02:43:00;10.90;;;1.90;;
44143;SDS011;68165;51.920;4.492;2023-07-13T02:45:26;6.15;;;1.98;;
44143;SDS011;68165;51.920;4.492;2023-07-13T02:47:51;13.30;;;2.72;;
44143;SDS011;68165;51.920;4.492;2023-07-13T02:50:16;8.75;;;2.17;;
44143;SDS011;68165;51.920;4.492;2023-07-13T02:52:42;9.15;;;2.08;;
44143;SDS011;68165;51.920;4.492;2023-07-13T02:55:07;11.25;;;2.00;;
44143;SDS011;68165;51.920;4.492;2023-07-13T02:57:33;5.15;;;1.42;;
44143;SDS011;68165;51.920;4.492;2023-07-13T02:59:59;6.97;;;1.55;;
44143;SDS011;68165;51.920;4.492;2023-07-13T03:02:24;7.53;;;1.95;;
44143;SDS011;68165;51.920;4.492;2023-07-13T03:04:52;12.00;;;2.67;;
44143;SDS011;68165;51.920;4.492;2023-07-13T03:07:18;12.88;;;3.03;;
44143;SDS011;68165;51.920;4.492;2023-07-13T03:09:44;11.93;;;1.90;;
44143;SDS011;68165;51.920;4.492;2023-07-13T03:12:09;10.15;;;2.70;;
44143;SDS011;68165;51.920;4.492;2023-07-13T03:14:34;13.30;;;1.85;;
44143;SDS011;68165;51.920;4.492;2023-07-13T03:17:00;11.32;;;2.30;;
44143;SDS011;68165;51.920;4.492;2023-07-13T03:19:25;7.45;;;1.95;;
44143;SDS011;68165;51.920;4.492;2023-07-13T03:21:50;8.82;;;1.92;;
44143;SDS011;68165;51.920;4.492;2023-07-13T03:24:16;10.65;;;2.42;;
44143;SDS011;68165;51.920;4.492;2023-07-13T03:26:41;10.82;;;2.85;;
44143;SDS011;68165;51.920;4.492;2023-07-13T03:29:07;10.52;;;1.95;;
44143;SDS011;68165;51.920;4.492;2023-07-13T03:31:34;12.55;;;2.42;;
44143;SDS011;68165;51.920;4.492;2023-07-13T03:34:01;14.00;;;2.15;;
44143;SDS011;68165;51.920;4.492;2023-07-13T03:36:28;14.65;;;2.42;;
44143;SDS011;68165;51.920;4.492;2023-07-13T03:38:56;13.63;;;2.33;;
44143;SDS011;68165;51.920;4.492;2023-07-13T03:41:24;18.50;;;2.78;;
44143;SDS011;68165;51.920;4.492;2023-07-13T03:43:50;15.95;;;3.35;;
44143;SDS011;68165;51.920;4.492;2023-07-13T03:46:16;8.82;;;2.05;;
44143;SDS011;68165;51.920;4.492;2023-07-13T03:48:43;15.30;;;2.35;;
44143;SDS011;68165;51.920;4.492;2023-07-13T03:51:12;14.13;;;2.53;;
44143;SDS011;68165;51.920;4.492;2023-07-13T03:53:40;8.48;;;1.88;;
44143;SDS011;68165;51.920;4.492;2023-07-13T03:56:07;10.73;;;2.47;;
44143;SDS011;68165;51.920;4.492;2023-07-13T03:58:34;16.35;;;3.75;;
44143;SDS011;68165;51.920;4.492;2023-07-13T04:01:01;16.92;;;2.70;;
44143;SDS011;68165;51.920;4.492;2023-07-13T04:03:27;11.60;;;2.60;;
44143;SDS011;68165;51.920;4.492;2023-07-13T04:05:56;11.63;;;2.20;;
44143;SDS011;68165;51.920;4.492;2023-07-13T04:08:32;17.50;;;3.38;;
44143;SDS011;68165;51.920;4.492;2023-07-13T04:10:59;11.20;;;2.53;;
44143;SDS011;68165;51.920;4.492;2023-07-13T04:13:25;10.85;;;2.65;;
44143;SDS011;68165;51.920;4.492;2023-07-13T04:15:51;9.63;;;2.35;;
44143;SDS011;68165;51.920;4.492;2023-07-13T04:18:17;9.40;;;2.40;;
44143;SDS011;68165;51.920;4.492;2023-07-13T04:20:44;17.35;;;2.60;;
44143;SDS011;68165;51.920;4.492;2023-07-13T04:23:10;15.57;;;2.58;;
44143;SDS011;68165;51.920;4.492;2023-07-13T04:25:36;10.13;;;2.42;;
44143;SDS011;68165;51.920;4.492;2023-07-13T04:28:03;18.50;;;2.70;;
44143;SDS011;68165;51.920;4.492;2023-07-13T04:30:28;10.52;;;2.28;;
44143;SDS011;68165;51.920;4.492;2023-07-13T04:32:54;11.30;;;2.25;;
44143;SDS011;68165;51.920;4.492;2023-07-13T04:35:19;10.25;;;2.13;;
44143;SDS011;68165;51.920;4.492;2023-07-13T04:37:46;10.23;;;2.55;;
44143;SDS011;68165;51.920;4.492;2023-07-13T04:40:13;22.52;;;4.13;;
44143;SDS011;68165;51.920;4.492;2023-07-13T04:42:38;10.85;;;2.03;;
44143;SDS011;68165;51.920;4.492;2023-07-13T04:45:05;8.48;;;2.20;;
44143;SDS011;68165;51.920;4.492;2023-07-13T04:47:32;11.13;;;2.50;;
44143;SDS011;68165;51.920;4.492;2023-07-13T04:49:57;9.00;;;2.20;;
44143;SDS011;68165;51.920;4.492;2023-07-13T04:52:23;13.20;;;2.17;;
44143;SDS011;68165;51.920;4.492;2023-07-13T04:54:49;13.50;;;2.35;;
44143;SDS011;68165;51.920;4.492;2023-07-13T04:57:14;10.20;;;2.45;;
44143;SDS011;68165;51.920;4.492;2023-07-13T04:59:41;14.43;;;2.42;;
44143;SDS011;68165;51.920;4.492;2023-07-13T05:02:06;7.22;;;1.67;;
44143;SDS011;68165;51.920;4.492;2023-07-13T05:04:32;7.93;;;2.28;;
44143;SDS011;68165;51.920;4.492;2023-07-13T05:06:57;11.63;;;2.80;;
44143;SDS011;68165;51.920;4.492;2023-07-13T05:09:24;14.32;;;2.90;;
44143;SDS011;68165;51.920;4.492;2023-07-13T05:11:49;10.57;;;2.67;;
44143;SDS011;68165;51.920;4.492;2023-07-13T05:14:14;13.70;;;2.60;;
44143;SDS011;68165;51.920;4.492;2023-07-13T05:16:41;9.93;;;2.47;;
44143;SDS011;68165;51.920;4.492;2023-07-13T05:19:07;12.45;;;2.58;;
44143;SDS011;68165;51.920;4.492;2023-07-13T05:21:33;13.82;;;2.42;;
44143;SDS011;68165;51.920;4.492;2023-07-13T05:23:58;9.60;;;2.53;;
44143;SDS011;68165;51.920;4.492;2023-07-13T05:26:23;11.88;;;2.20;;
44143;SDS011;68165;51.920;4.492;2023-07-13T05:28:49;11.35;;;2.50;;
44143;SDS011;68165;51.920;4.492;2023-07-13T05:31:14;13.68;;;3.05;;
44143;SDS011;68165;51.920;4.492;2023-07-13T05:33:40;12.57;;;2.95;;
44143;SDS011;68165;51.920;4.492;2023-07-13T05:36:05;16.50;;;2.58;;
44143;SDS011;68165;51.920;4.492;2023-07-13T05:38:32;11.80;;;2.47;;
44143;SDS011;68165;51.920;4.492;2023-07-13T05:40:57;8.00;;;2.08;;
44143;SDS011;68165;51.920;4.492;2023-07-13T05:43:23;16.40;;;3.13;;
44143;SDS011;68165;51.920;4.492;2023-07-13T05:45:49;17.75;;;2.67;;
44143;SDS011;68165;51.920;4.492;2023-07-13T05:48:18;16.15;;;3.00;;
44143;SDS011;68165;51.920;4.492;2023-07-13T05:50:43;8.95;;;1.73;;
44143;SDS011;68165;51.920;4.492;2023-07-13T05:53:09;5.93;;;1.67;;
44143;SDS011;68165;51.920;4.492;2023-07-13T05:55:34;4.43;;;1.35;;
44143;SDS011;68165;51.920;4.492;2023-07-13T05:58:00;7.45;;;1.40;;
44143;SDS011;68165;51.920;4.492;2023-07-13T06:00:27;8.77;;;1.70;;
44143;SDS011;68165;51.920;4.492;2023-07-13T06:02:52;11.35;;;2.22;;
44143;SDS011;68165;51.920;4.492;2023-07-13T06:05:18;7.05;;;2.35;;
44143;SDS011;68165;51.920;4.492;2023-07-13T06:07:43;7.07;;;2.20;;
44143;SDS011;68165;51.920;4.492;2023-07-13T06:10:09;4.93;;;1.73;;
44143;SDS011;68165;51.920;4.492;2023-07-13T06:12:34;5.55;;;1.70;;
44143;SDS011;68165;51.920;4.492;2023-07-13T06:15:00;6.72;;;1.83;;
44143;SDS011;68165;51.920;4.492;2023-07-13T06:17:25;6.25;;;1.77;;
44143;SDS011;68165;51.920;4.492;2023-07-13T06:19:50;6.75;;;1.70;;
44143;SDS011;68165;51.920;4.492;2023-07-13T06:22:16;5.88;;;2.00;;
44143;SDS011;68165;51.920;4.492;2023-07-13T06:24:41;10.05;;;2.25;;
44143;SDS011;68165;51.920;4.492;2023-07-13T06:27:07;10.90;;;3.13;;
44143;SDS011;68165;51.920;4.492;2023-07-13T06:29:32;6.93;;;2.10;;
44143;SDS011;68165;51.920;4.492;2023-07-13T06:31:58;11.30;;;2.50;;
44143;SDS011;68165;51.920;4.492;2023-07-13T06:34:23;6.72;;;2.42;;
44143;SDS011;68165;51.920;4.492;2023-07-13T06:36:48;7.68;;;2.60;;
44143;SDS011;68165;51.920;4.492;2023-07-13T06:39:14;12.52;;;3.33;;
44143;SDS011;68165;51.920;4.492;2023-07-13T06:41:42;13.52;;;3.92;;
44143;SDS011;68165;51.920;4.492;2023-07-13T06:44:07;11.98;;;4.07;;
44143;SDS011;68165;51.920;4.492;2023-07-13T06:46:33;12.40;;;3.15;;
44143;SDS011;68165;51.920;4.492;2023-07-13T06:48:58;9.48;;;3.05;;
44143;SDS011;68165;51.920;4.492;2023-07-13T06:51:24;8.35;;;2.95;;
44143;SDS011;68165;51.920;4.492;2023-07-13T06:53:51;15.05;;;3.35;;
44143;SDS011;68165;51.920;4.492;2023-07-13T06:56:16;11.68;;;3.08;;
44143;SDS011;68165;51.920;4.492;2023-07-13T06:58:41;13.10;;;3.28;;
44143;SDS011;68165;51.920;4.492;2023-07-13T07:01:08;11.48;;;3.47;;
44143;SDS011;68165;51.920;4.492;2023-07-13T07:03:34;12.93;;;2.95;;
44143;SDS011;68165;51.920;4.492;2023-07-13T07:06:00;7.57;;;3.00;;
44143;SDS011;68165;51.920;4.492;2023-07-13T07:08:37;10.05;;;2.90;;
44143;SDS011;68165;51.920;4.492;2023-07-13T07:11:03;10.77;;;2.55;;
44143;SDS011;68165;51.920;4.492;2023-07-13T07:13:28;10.48;;;2.80;;
44143;SDS011;68165;51.920;4.492;2023-07-13T07:15:54;9.20;;;2.58;;
44143;SDS011;68165;51.920;4.492;2023-07-13T07:18:20;13.38;;;2.97;;
44143;SDS011;68165;51.920;4.492;2023-07-13T07:20:45;6.32;;;2.15;;
44143;SDS011;68165;51.920;4.492;2023-07-13T07:23:10;8.73;;;2.47;;
44143;SDS011;68165;51.920;4.492;2023-07-13T07:25:36;7.70;;;2.25;;
44143;SDS011;68165;51.920;4.492;2023-07-13T07:28:06;3.13;;;1.23;;
44143;SDS011;68165;51.920;4.492;2023-07-13T07:30:32;6.35;;;1.52;;
44143;SDS011;68165;51.920;4.492;2023-07-13T07:32:58;6.80;;;1.90;;
44143;SDS011;68165;51.920;4.492;2023-07-13T07:35:23;4.43;;;1.50;;
44143;SDS011;68165;51.920;4.492;2023-07-13T07:37:49;4.35;;;1.30;;
44143;SDS011;68165;51.920;4.492;2023-07-13T07:40:14;4.90;;;1.48;;
44143;SDS011;68165;51.920;4.492;2023-07-13T07:42:39;4.65;;;1.30;;
44143;SDS011;68165;51.920;4.492;2023-07-13T07:45:05;6.47;;;1.80;;
44143;SDS011;68165;51.920;4.492;2023-07-13T07:47:31;3.78;;;1.00;;
44143;SDS011;68165;51.920;4.492;2023-07-13T07:49:56;4.88;;;2.42;;
44143;SDS011;68165;51.920;4.492;2023-07-13T07:52:22;7.95;;;1.80;;
44143;SDS011;68165;51.920;4.492;2023-07-13T07:54:47;6.70;;;2.13;;
44143;SDS011;68165;51.920;4.492;2023-07-13T07:57:13;7.03;;;1.83;;
44143;SDS011;68165;51.920;4.492;2023-07-13T07:59:38;6.68;;;1.60;;
44143;SDS011;68165;51.920;4.492;2023-07-13T08:02:03;8.10;;;1.85;;
44143;SDS011;68165;51.920;4.492;2023-07-13T08:04:29;6.90;;;1.67;;
44143;SDS011;68165;51.920;4.492;2023-07-13T08:06:54;7.15;;;1.85;;
44143;SDS011;68165;51.920;4.492;2023-07-13T08:09:21;6.15;;;1.58;;
44143;SDS011;68165;51.920;4.492;2023-07-13T08:11:47;6.38;;;1.60;;
44143;SDS011;68165;51.920;4.492;2023-07-13T08:14:12;4.93;;;1.42;;
44143;SDS011;68165;51.920;4.492;2023-07-13T08:16:37;6.18;;;1.73;;
44143;SDS011;68165;51.920;4.492;2023-07-13T08:19:03;4.80;;;1.55;;
44143;SDS011;68165;51.920;4.492;2023-07-13T08:21:29;4.97;;;1.88;;
44143;SDS011;68165;51.920;4.492;2023-07-13T08:23:55;4.15;;;1.73;;
44143;SDS011;68165;51.920;4.492;2023-07-13T08:26:20;4.63;;;1.55;;
44143;SDS011;68165;51.920;4.492;2023-07-13T08:28:46;9.68;;;2.05;;
44143;SDS011;68165;51.920;4.492;2023-07-13T08:31:12;6.82;;;1.70;;
44143;SDS011;68165;51.920;4.492;2023-07-13T08:33:38;5.93;;;1.77;;
44143;SDS011;68165;51.920;4.492;2023-07-13T08:36:05;4.15;;;1.20;;
44143;SDS011;68165;51.920;4.492;2023-07-13T08:38:31;7.93;;;1.73;;
44143;SDS011;68165;51.920;4.492;2023-07-13T08:40:57;4.65;;;1.70;;
44143;SDS011;68165;51.920;4.492;2023-07-13T08:43:25;5.95;;;1.77;;
44143;SDS011;68165;51.920;4.492;2023-07-13T08:46:04;7.47;;;1.95;;
44143;SDS011;68165;51.920;4.492;2023-07-13T08:49:05;4.30;;;1.70;;
44143;SDS011;68165;51.920;4.492;2023-07-13T08:54:28;7.18;;;2.17;;
44143;SDS011;68165;51.920;4.492;2023-07-13T08:57:00;8.17;;;1.97;;
44143;SDS011;68165;51.920;4.492;2023-07-13T08:59:34;10.32;;;2.55;;
44143;SDS011;68165;51.920;4.492;2023-07-13T09:10:44;6.70;;;1.70;;
44143;SDS011;68165;51.920;4.492;2023-07-13T09:15:41;7.72;;;2.20;;
44143;SDS011;68165;51.920;4.492;2023-07-13T09:21:17;7.15;;;2.60;;
44143;SDS011;68165;51.920;4.492;2023-07-13T09:23:47;5.15;;;2.08;;
44143;SDS011;68165;51.920;4.492;2023-07-13T09:26:18;8.95;;;2.05;;
44143;SDS011;68165;51.920;4.492;2023-07-13T09:28:49;10.27;;;2.50;;
44143;SDS011;68165;51.920;4.492;2023-07-13T09:31:32;7.43;;;2.28;;
44143;SDS011;68165;51.920;4.492;2023-07-13T09:34:02;6.40;;;2.50;;
44143;SDS011;68165;51.920;4.492;2023-07-13T09:36:28;8.88;;;2.40;;
44143;SDS011;68165;51.920;4.492;2023-07-13T09:41:33;8.15;;;2.50;;
44143;SDS011;68165;51.920;4.492;2023-07-13T09:44:17;5.97;;;1.98;;
44143;SDS011;68165;51.920;4.492;2023-07-13T09:46:58;5.95;;;1.77;;
44143;SDS011;68165;51.920;4.492;2023-07-13T09:49:28;10.25;;;3.00;;
44143;SDS011;68165;51.920;4.492;2023-07-13T09:52:04;7.18;;;2.17;;
44143;SDS011;68165;51.920;4.492;2023-07-13T09:57:02;8.43;;;2.20;;
44143;SDS011;68165;51.920;4.492;2023-07-13T09:59:37;6.25;;;2.47;;
44143;SDS011;68165;51.920;4.492;2023-07-13T10:04:55;4.43;;;1.70;;
44143;SDS011;68165;51.920;4.492;2023-07-13T10:07:44;8.57;;;1.95;;
44143;SDS011;68165;51.920;4.492;2023-07-13T10:10:14;5.78;;;1.80;;
44143;SDS011;68165;51.920;4.492;2023-07-13T10:12:43;6.03;;;2.22;;
44143;SDS011;68165;51.920;4.492;2023-07-13T10:15:27;10.13;;;1.95;;
44143;SDS011;68165;51.920;4.492;2023-07-13T10:17:53;6.80;;;2.10;;
44143;SDS011;68165;51.920;4.492;2023-07-13T10:20:21;8.80;;;2.08;;
44143;SDS011;68165;51.920;4.492;2023-07-13T10:25:27;7.85;;;2.38;;
44143;SDS011;68165;51.920;4.492;2023-07-13T10:27:58;9.40;;;2.83;;
44143;SDS011;68165;51.920;4.492;2023-07-13T10:30:31;8.55;;;2.53;;
44143;SDS011;68165;51.920;4.492;2023-07-13T10:33:01;8.25;;;2.25;;
44143;SDS011;68165;51.920;4.492;2023-07-13T10:35:29;6.90;;;1.58;;
44143;SDS011;68165;51.920;4.492;2023-07-13T10:40:57;5.35;;;2.15;;
44143;SDS011;68165;51.920;4.492;2023-07-13T10:43:27;7.38;;;1.42;;
44143;SDS011;68165;51.920;4.492;2023-07-13T10:45:57;6.53;;;1.73;;
44143;SDS011;68165;51.920;4.492;2023-07-13T10:48:25;3.45;;;1.30;;
44143;SDS011;68165;51.920;4.492;2023-07-13T10:50:52;4.30;;;1.52;;
44143;SDS011;68165;51.920;4.492;2023-07-13T10:53:30;5.60;;;1.75;;
44143;SDS011;68165;51.920;4.492;2023-07-13T10:55:59;4.82;;;1.90;;
44143;SDS011;68165;51.920;4.492;2023-07-13T10:58:36;5.82;;;1.65;;
44143;SDS011;68165;51.920;4.492;2023-07-13T11:03:33;4.90;;;1.80;;
44143;SDS011;68165;51.920;4.492;2023-07-13T11:06:05;3.92;;;1.40;;
44143;SDS011;68165;51.920;4.492;2023-07-13T11:18:49;5.97;;;1.60;;
44143;SDS011;68165;51.920;4.492;2023-07-13T11:21:33;6.03;;;1.77;;
44143;SDS011;68165;51.920;4.492;2023-07-13T11:24:14;5.80;;;1.63;;
44143;SDS011;68165;51.920;4.492;2023-07-13T11:31:57;5.72;;;1.70;;
44143;SDS011;68165;51.920;4.492;2023-07-13T11:34:31;4.53;;;1.50;;
44143;SDS011;68165;51.920;4.492;2023-07-13T11:37:01;3.90;;;1.60;;
44143;SDS011;68165;51.920;4.492;2023-07-13T11:42:05;4.47;;;2.17;;
44143;SDS011;68165;51.920;4.492;2023-07-13T11:44:34;3.15;;;1.23;;
44143;SDS011;68165;51.920;4.492;2023-07-13T11:47:10;6.07;;;1.58;;
44143;SDS011;68165;51.920;4.492;2023-07-13T11:49:43;2.60;;;1.10;;
44143;SDS011;68165;51.920;4.492;2023-07-13T11:52:16;2.83;;;1.35;;
44143;SDS011;68165;51.920;4.492;2023-07-13T11:54:52;4.20;;;1.20;;
44143;SDS011;68165;51.920;4.492;2023-07-13T11:57:26;5.30;;;1.42;;
44143;SDS011;68165;51.920;4.492;2023-07-13T11:59:52;6.78;;;1.55;;
44143;SDS011;68165;51.920;4.492;2023-07-13T12:02:33;6.30;;;1.10;;
44143;SDS011;68165;51.920;4.492;2023-07-13T12:05:03;5.75;;;1.38;;
44143;SDS011;68165;51.920;4.492;2023-07-13T12:07:30;6.45;;;1.45;;
44143;SDS011;68165;51.920;4.492;2023-07-13T12:10:13;4.70;;;1.40;;
44143;SDS011;68165;51.920;4.492;2023-07-13T12:15:19;4.95;;;1.50;;
44143;SDS011;68165;51.920;4.492;2023-07-13T12:17:47;5.93;;;1.48;;
44143;SDS011;68165;51.920;4.492;2023-07-13T12:20:20;2.00;;;1.00;;
44143;SDS011;68165;51.920;4.492;2023-07-13T12:22:49;3.60;;;1.15;;
44143;SDS011;68165;51.920;4.492;2023-07-13T12:25:16;4.30;;;1.13;;
44143;SDS011;68165;51.920;4.492;2023-07-13T12:27:42;6.13;;;1.52;;
44143;SDS011;68165;51.920;4.492;2023-07-13T12:30:22;5.07;;;1.30;;
44143;SDS011;68165;51.920;4.492;2023-07-13T12:33:01;4.53;;;1.35;;
44143;SDS011;68165;51.920;4.492;2023-07-13T12:35:39;6.10;;;1.17;;
44143;SDS011;68165;51.920;4.492;2023-07-13T12:38:09;5.25;;;1.38;;
44143;SDS011;68165;51.920;4.492;2023-07-13T12:40:35;3.88;;;1.10;;
44143;SDS011;68165;51.920;4.492;2023-07-13T12:43:02;4.97;;;1.38;;
44143;SDS011;68165;51.920;4.492;2023-07-13T12:45:31;7.95;;;1.42;;
44143;SDS011;68165;51.920;4.492;2023-07-13T12:47:58;5.53;;;1.35;;
44143;SDS011;68165;51.920;4.492;2023-07-13T12:50:34;5.85;;;1.35;;
44143;SDS011;68165;51.920;4.492;2023-07-13T12:53:03;4.00;;;1.02;;
44143;SDS011;68165;51.920;4.492;2023-07-13T12:55:43;2.90;;;1.20;;
44143;SDS011;68165;51.920;4.492;2023-07-13T13:01:15;3.15;;;1.20;;
44143;SDS011;68165;51.920;4.492;2023-07-13T13:03:46;4.30;;;1.27;;
44143;SDS011;68165;51.920;4.492;2023-07-13T13:08:43;6.60;;;1.92;;
44143;SDS011;68165;51.920;4.492;2023-07-13T13:11:10;4.95;;;1.58;;
44143;SDS011;68165;51.920;4.492;2023-07-13T13:13:41;5.32;;;1.15;;
44143;SDS011;68165;51.920;4.492;2023-07-13T13:16:19;3.08;;;1.10;;
44143;SDS011;68165;51.920;4.492;2023-07-13T13:18:45;6.85;;;1.80;;
44143;SDS011;68165;51.920;4.492;2023-07-13T13:21:10;7.07;;;1.70;;
44143;SDS011;68165;51.920;4.492;2023-07-13T13:23:36;6.07;;;1.58;;
44143;SDS011;68165;51.920;4.492;2023-07-13T13:26:02;3.65;;;0.70;;
44143;SDS011;68165;51.920;4.492;2023-07-13T13:28:28;5.32;;;1.52;;
44143;SDS011;68165;51.920;4.492;2023-07-13T13:30:54;3.65;;;1.17;;
44143;SDS011;68165;51.920;4.492;2023-07-13T13:33:20;2.88;;;1.20;;
44143;SDS011;68165;51.920;4.492;2023-07-13T13:35:46;2.60;;;1.08;;
44143;SDS011;68165;51.920;4.492;2023-07-13T13:38:15;1.77;;;0.75;;
44143;SDS011;68165;51.920;4.492;2023-07-13T13:40:44;3.58;;;0.80;;
44143;SDS011;68165;51.920;4.492;2023-07-13T13:43:14;2.25;;;0.88;;
44143;SDS011;68165;51.920;4.492;2023-07-13T13:45:43;8.73;;;1.05;;
44143;SDS011;68165;51.920;4.492;2023-07-13T13:48:13;4.93;;;0.98;;
44143;SDS011;68165;51.920;4.492;2023-07-13T13:50:40;4.43;;;1.40;;
44143;SDS011;68165;51.920;4.492;2023-07-13T13:53:09;3.88;;;0.93;;
44143;SDS011;68165;51.920;4.492;2023-07-13T13:55:35;3.33;;;1.00;;
44143;SDS011;68165;51.920;4.492;2023-07-13T13:58:00;4.50;;;1.35;;
44143;SDS011;68165;51.920;4.492;2023-07-13T14:00:26;3.03;;;1.10;;
44143;SDS011;68165;51.920;4.492;2023-07-13T14:02:51;3.60;;;0.95;;
44143;SDS011;68165;51.920;4.492;2023-07-13T14:05:22;6.43;;;1.52;;
44143;SDS011;68165;51.920;4.492;2023-07-13T14:10:15;6.30;;;1.50;;
44143;SDS011;68165;51.920;4.492;2023-07-13T14:12:43;2.80;;;0.80;;
44143;SDS011;68165;51.920;4.492;2023-07-13T14:15:17;3.65;;;1.02;;
44143;SDS011;68165;51.920;4.492;2023-07-13T14:17:45;3.53;;;1.20;;
44143;SDS011;68165;51.920;4.492;2023-07-13T14:20:14;1.77;;;0.60;;
44143;SDS011;68165;51.920;4.492;2023-07-13T14:22:40;3.28;;;0.90;;
44143;SDS011;68165;51.920;4.492;2023-07-13T14:25:10;3.40;;;1.10;;
44143;SDS011;68165;51.920;4.492;2023-07-13T14:27:36;5.38;;;1.30;;
44143;SDS011;68165;51.920;4.492;2023-07-13T14:30:02;4.38;;;1.10;;
44143;SDS011;68165;51.920;4.492;2023-07-13T14:32:28;4.60;;;1.27;;
44143;SDS011;68165;51.920;4.492;2023-07-13T14:34:53;4.50;;;1.25;;
44143;SDS011;68165;51.920;4.492;2023-07-13T14:37:19;3.80;;;0.93;;
44143;SDS011;68165;51.920;4.492;2023-07-13T14:39:45;3.10;;;1.10;;
44143;SDS011;68165;51.920;4.492;2023-07-13T14:42:14;3.25;;;0.80;;
44143;SDS011;68165;51.920;4.492;2023-07-13T14:44:40;4.57;;;1.45;;
44143;SDS011;68165;51.920;4.492;2023-07-13T14:47:05;3.90;;;1.00;;
44143;SDS011;68165;51.920;4.492;2023-07-13T14:52:08;4.15;;;0.98;;
44143;SDS011;68165;51.920;4.492;2023-07-13T14:54:37;4.35;;;1.05;;
44143;SDS011;68165;51.920;4.492;2023-07-13T14:57:17;8.68;;;1.63;;
44143;SDS011;68165;51.920;4.492;2023-07-13T14:59:44;5.18;;;1.25;;
44143;SDS011;68165;51.920;4.492;2023-07-13T15:04:41;3.40;;;0.93;;
44143;SDS011;68165;51.920;4.492;2023-07-13T15:07:09;3.13;;;1.00;;
44143;SDS011;68165;51.920;4.492;2023-07-13T15:09:36;6.43;;;1.13;;
44143;SDS011;68165;51.920;4.492;2023-07-13T15:12:01;4.13;;;1.15;;
44143;SDS011;68165;51.920;4.492;2023-07-13T15:14:26;2.85;;;1.00;;
44143;SDS011;68165;51.920;4.492;2023-07-13T15:16:53;1.75;;;0.70;;
44143;SDS011;68165;51.920;4.492;2023-07-13T15:19:21;2.38;;;0.82;;
44143;SDS011;68165;51.920;4.492;2023-07-13T15:21:48;2.78;;;0.60;;
44143;SDS011;68165;51.920;4.492;2023-07-13T15:24:15;6.18;;;1.00;;
44143;SDS011;68165;51.920;4.492;2023-07-13T15:26:40;3.03;;;1.02;;
44143;SDS011;68165;51.920;4.492;2023-07-13T15:29:10;4.90;;;1.27;;
44143;SDS011;68165;51.920;4.492;2023-07-13T15:31:35;5.18;;;1.20;;
44143;SDS011;68165;51.920;4.492;2023-07-13T15:34:03;7.78;;;1.30;;
44143;SDS011;68165;51.920;4.492;2023-07-13T15:36:34;4.53;;;1.33;;
44143;SDS011;68165;51.920;4.492;2023-07-13T15:39:00;3.72;;;1.63;;
44143;SDS011;68165;51.920;4.492;2023-07-13T15:41:26;5.13;;;1.08;;
44143;SDS011;68165;51.920;4.492;2023-07-13T15:43:54;3.58;;;1.35;;
44143;SDS011;68165;51.920;4.492;2023-07-13T15:46:23;5.22;;;1.40;;
44143;SDS011;68165;51.920;4.492;2023-07-13T15:48:49;4.18;;;1.52;;
44143;SDS011;68165;51.920;4.492;2023-07-13T15:56:20;4.15;;;1.08;;
44143;SDS011;68165;51.920;4.492;2023-07-13T15:58:49;4.90;;;0.82;;
44143;SDS011;68165;51.920;4.492;2023-07-13T16:01:15;6.55;;;1.15;;
44143;SDS011;68165;51.920;4.492;2023-07-13T16:03:41;4.25;;;1.40;;